sensor_id;sensor_type;location;lat;lon;timestamp;temperature;humidity
7784;DHT22;19359;51.402;6.778;2022-11-23T00:01:21;8.10;99.90
7784;DHT22;19359;51.402;6.778;2022-11-23T00:03:50;8.20;99.90
7784;DHT22;19359;51.402;6.778;2022-11-23T00:06:18;8.20;99.90
7784;DHT22;19359;51.402;6.778;2022-11-23T00:08:46;8.30;99.90
7784;DHT22;19359;51.402;6.778;2022-11-23T00:11:14;8.20;99.90
7784;DHT22;19359;51.402;6.778;2022-11-23T00:13:41;8.20;99.90
7784;DHT22;19359;51.402;6.778;2022-11-23T00:16:10;8.20;99.90
7784;DHT22;19359;51.402;6.778;2022-11-23T00:18:38;8.30;99.90
7784;DHT22;19359;51.402;6.778;2022-11-23T00:21:05;8.10;99.90
7784;DHT22;19359;51.402;6.778;2022-11-23T00:23:32;8.30;99.90
7784;DHT22;19359;51.402;6.778;2022-11-23T00:25:59;8.30;99.90
7784;DHT22;19359;51.402;6.778;2022-11-23T00:28:27;8.20;99.90
7784;DHT22;19359;51.402;6.778;2022-11-23T00:30:54;8.30;99.90
7784;DHT22;19359;51.402;6.778;2022-11-23T00:33:21;8.40;99.90
7784;DHT22;19359;51.402;6.778;2022-11-23T00:35:57;8.40;99.90
7784;DHT22;19359;51.402;6.778;2022-11-23T00:38:24;8.40;99.90
7784;DHT22;19359;51.402;6.778;2022-11-23T00:40:57;8.40;99.90
7784;DHT22;19359;51.402;6.778;2022-11-23T00:43:23;8.50;99.90
7784;DHT22;19359;51.402;6.778;2022-11-23T00:46:01;8.40;99.90
7784;DHT22;19359;51.402;6.778;2022-11-23T00:48:28;8.50;99.90
7784;DHT22;19359;51.402;6.778;2022-11-23T00:50:54;8.40;99.90
7784;DHT22;19359;51.402;6.778;2022-11-23T00:53:21;8.50;99.90
7784;DHT22;19359;51.402;6.778;2022-11-23T00:55:50;8.40;99.90
7784;DHT22;19359;51.402;6.778;2022-11-23T00:58:17;8.70;99.90
7784;DHT22;19359;51.402;6.778;2022-11-23T01:00:44;8.60;99.90
7784;DHT22;19359;51.402;6.778;2022-11-23T01:03:12;8.40;99.90
7784;DHT22;19359;51.402;6.778;2022-11-23T01:05:38;8.40;99.90
7784;DHT22;19359;51.402;6.778;2022-11-23T01:08:05;8.30;99.90
7784;DHT22;19359;51.402;6.778;2022-11-23T01:10:32;8.50;99.90
7784;DHT22;19359;51.402;6.778;2022-11-23T01:12:59;8.40;99.90
7784;DHT22;19359;51.402;6.778;2022-11-23T01:15:26;8.40;99.90
7784;DHT22;19359;51.402;6.778;2022-11-23T01:17:53;8.50;99.90
7784;DHT22;19359;51.402;6.778;2022-11-23T01:20:21;8.40;99.90
7784;DHT22;19359;51.402;6.778;2022-11-23T01:22:50;8.40;99.90
7784;DHT22;19359;51.402;6.778;2022-11-23T01:25:17;8.40;99.90
7784;DHT22;19359;51.402;6.778;2022-11-23T01:27:43;8.20;99.90
7784;DHT22;19359;51.402;6.778;2022-11-23T01:30:11;8.30;99.90
7784;DHT22;19359;51.402;6.778;2022-11-23T01:32:38;8.20;99.90
7784;DHT22;19359;51.402;6.778;2022-11-23T01:35:08;8.40;99.90
7784;DHT22;19359;51.402;6.778;2022-11-23T01:37:36;8.50;99.90
7784;DHT22;19359;51.402;6.778;2022-11-23T01:40:03;8.50;99.90
7784;DHT22;19359;51.402;6.778;2022-11-23T01:42:46;8.40;99.90
7784;DHT22;19359;51.402;6.778;2022-11-23T01:45:37;8.50;99.90
7784;DHT22;19359;51.402;6.778;2022-11-23T01:48:10;8.30;99.90
7784;DHT22;19359;51.402;6.778;2022-11-23T01:50:39;8.60;99.90
7784;DHT22;19359;51.402;6.778;2022-11-23T01:53:07;8.60;99.90
7784;DHT22;19359;51.402;6.778;2022-11-23T01:55:35;8.60;99.90
7784;DHT22;19359;51.402;6.778;2022-11-23T01:58:02;8.60;99.90
7784;DHT22;19359;51.402;6.778;2022-11-23T02:00:29;8.80;99.90
7784;DHT22;19359;51.402;6.778;2022-11-23T02:02:57;8.50;99.90
7784;DHT22;19359;51.402;6.778;2022-11-23T02:05:28;8.60;99.90
7784;DHT22;19359;51.402;6.778;2022-11-23T02:07:57;9.40;99.90
7784;DHT22;19359;51.402;6.778;2022-11-23T02:10:27;8.70;99.90
7784;DHT22;19359;51.402;6.778;2022-11-23T02:12:54;9.40;99.90
7784;DHT22;19359;51.402;6.778;2022-11-23T02:15:21;8.70;99.90
7784;DHT22;19359;51.402;6.778;2022-11-23T02:17:48;8.70;99.90
7784;DHT22;19359;51.402;6.778;2022-11-23T02:20:16;8.70;99.90
7784;DHT22;19359;51.402;6.778;2022-11-23T02:22:49;9.00;99.90
7784;DHT22;19359;51.402;6.778;2022-11-23T02:25:27;8.80;99.90
7784;DHT22;19359;51.402;6.778;2022-11-23T02:28:00;8.70;99.90
7784;DHT22;19359;51.402;6.778;2022-11-23T02:30:28;8.70;99.90
7784;DHT22;19359;51.402;6.778;2022-11-23T02:32:55;8.70;99.90
7784;DHT22;19359;51.402;6.778;2022-11-23T02:35:22;8.70;99.90
7784;DHT22;19359;51.402;6.778;2022-11-23T02:37:49;8.80;99.90
7784;DHT22;19359;51.402;6.778;2022-11-23T02:40:24;8.80;99.90
7784;DHT22;19359;51.402;6.778;2022-11-23T02:42:52;8.80;99.90
7784;DHT22;19359;51.402;6.778;2022-11-23T02:45:25;8.80;99.90
7784;DHT22;19359;51.402;6.778;2022-11-23T02:47:53;8.80;99.90
7784;DHT22;19359;51.402;6.778;2022-11-23T02:50:21;9.00;99.90
7784;DHT22;19359;51.402;6.778;2022-11-23T02:52:48;8.80;99.90
7784;DHT22;19359;51.402;6.778;2022-11-23T02:55:14;8.90;99.90
7784;DHT22;19359;51.402;6.778;2022-11-23T02:57:42;9.00;99.90
7784;DHT22;19359;51.402;6.778;2022-11-23T03:00:09;8.70;99.90
7784;DHT22;19359;51.402;6.778;2022-11-23T03:02:38;8.90;99.90
7784;DHT22;19359;51.402;6.778;2022-11-23T03:05:05;8.90;99.90
7784;DHT22;19359;51.402;6.778;2022-11-23T03:07:32;9.00;99.90
7784;DHT22;19359;51.402;6.778;2022-11-23T03:09:59;8.90;99.90
7784;DHT22;19359;51.402;6.778;2022-11-23T03:12:26;8.90;99.90
7784;DHT22;19359;51.402;6.778;2022-11-23T03:14:52;8.80;99.90
7784;DHT22;19359;51.402;6.778;2022-11-23T03:17:19;8.90;99.90
7784;DHT22;19359;51.402;6.778;2022-11-23T03:19:47;8.90;99.90
7784;DHT22;19359;51.402;6.778;2022-11-23T03:22:14;8.90;99.90
7784;DHT22;19359;51.402;6.778;2022-11-23T03:24:41;9.00;99.90
7784;DHT22;19359;51.402;6.778;2022-11-23T03:27:07;8.70;99.90
7784;DHT22;19359;51.402;6.778;2022-11-23T03:29:34;8.80;99.90
7784;DHT22;19359;51.402;6.778;2022-11-23T03:32:01;8.80;99.90
7784;DHT22;19359;51.402;6.778;2022-11-23T03:34:28;8.80;99.90
7784;DHT22;19359;51.402;6.778;2022-11-23T03:36:56;8.90;99.90
7784;DHT22;19359;51.402;6.778;2022-11-23T03:39:23;8.70;99.90
7784;DHT22;19359;51.402;6.778;2022-11-23T03:41:50;8.70;99.90
7784;DHT22;19359;51.402;6.778;2022-11-23T03:44:17;8.70;99.90
7784;DHT22;19359;51.402;6.778;2022-11-23T03:46:43;8.40;99.90
7784;DHT22;19359;51.402;6.778;2022-11-23T03:49:10;8.40;99.90
7784;DHT22;19359;51.402;6.778;2022-11-23T03:51:37;8.40;99.90
7784;DHT22;19359;51.402;6.778;2022-11-23T03:54:05;8.30;99.90
7784;DHT22;19359;51.402;6.778;2022-11-23T03:56:32;8.50;99.90
7784;DHT22;19359;51.402;6.778;2022-11-23T03:58:58;8.40;99.90
7784;DHT22;19359;51.402;6.778;2022-11-23T04:01:25;8.40;99.90
7784;DHT22;19359;51.402;6.778;2022-11-23T04:03:52;8.50;99.90
7784;DHT22;19359;51.402;6.778;2022-11-23T04:06:18;8.40;99.90
7784;DHT22;19359;51.402;6.778;2022-11-23T04:08:45;8.80;99.90
7784;DHT22;19359;51.402;6.778;2022-11-23T04:11:13;8.40;99.90
7784;DHT22;19359;51.402;6.778;2022-11-23T04:13:40;8.50;99.90
7784;DHT22;19359;51.402;6.778;2022-11-23T04:16:07;8.50;99.90
7784;DHT22;19359;51.402;6.778;2022-11-23T04:18:33;8.30;99.90
7784;DHT22;19359;51.402;6.778;2022-11-23T04:21:00;8.30;99.90
7784;DHT22;19359;51.402;6.778;2022-11-23T04:23:27;8.50;99.90
7784;DHT22;19359;51.402;6.778;2022-11-23T04:25:54;8.30;99.90
7784;DHT22;19359;51.402;6.778;2022-11-23T04:28:22;8.40;99.90
7784;DHT22;19359;51.402;6.778;2022-11-23T04:30:48;8.40;99.90
7784;DHT22;19359;51.402;6.778;2022-11-23T04:33:15;8.30;99.90
7784;DHT22;19359;51.402;6.778;2022-11-23T04:35:42;8.50;99.90
7784;DHT22;19359;51.402;6.778;2022-11-23T04:38:09;8.30;99.90
7784;DHT22;19359;51.402;6.778;2022-11-23T04:40:35;8.40;99.90
7784;DHT22;19359;51.402;6.778;2022-11-23T04:43:02;8.40;99.90
7784;DHT22;19359;51.402;6.778;2022-11-23T04:45:32;8.40;99.90
7784;DHT22;19359;51.402;6.778;2022-11-23T04:47:59;8.40;99.90
7784;DHT22;19359;51.402;6.778;2022-11-23T04:50:25;8.30;99.90
7784;DHT22;19359;51.402;6.778;2022-11-23T04:52:52;8.30;99.90
7784;DHT22;19359;51.402;6.778;2022-11-23T04:55:19;8.20;99.90
7784;DHT22;19359;51.402;6.778;2022-11-23T04:57:45;8.30;99.90
7784;DHT22;19359;51.402;6.778;2022-11-23T05:00:13;8.30;99.90
7784;DHT22;19359;51.402;6.778;2022-11-23T05:02:42;8.00;99.90
7784;DHT22;19359;51.402;6.778;2022-11-23T05:05:08;8.30;99.90
7784;DHT22;19359;51.402;6.778;2022-11-23T05:07:36;8.30;99.90
7784;DHT22;19359;51.402;6.778;2022-11-23T05:10:03;8.40;99.90
7784;DHT22;19359;51.402;6.778;2022-11-23T05:12:30;8.10;99.90
7784;DHT22;19359;51.402;6.778;2022-11-23T05:14:56;8.30;99.90
7784;DHT22;19359;51.402;6.778;2022-11-23T05:17:23;8.20;99.90
7784;DHT22;19359;51.402;6.778;2022-11-23T05:19:51;8.40;99.90
7784;DHT22;19359;51.402;6.778;2022-11-23T05:22:18;8.40;99.90
7784;DHT22;19359;51.402;6.778;2022-11-23T05:24:45;8.20;99.90
7784;DHT22;19359;51.402;6.778;2022-11-23T05:27:12;8.30;99.90
7784;DHT22;19359;51.402;6.778;2022-11-23T05:29:38;8.20;99.90
7784;DHT22;19359;51.402;6.778;2022-11-23T05:32:05;8.30;99.90
7784;DHT22;19359;51.402;6.778;2022-11-23T05:34:32;8.10;99.90
7784;DHT22;19359;51.402;6.778;2022-11-23T05:37:00;8.20;99.90
7784;DHT22;19359;51.402;6.778;2022-11-23T05:39:26;8.30;99.90
7784;DHT22;19359;51.402;6.778;2022-11-23T05:41:53;8.20;99.90
7784;DHT22;19359;51.402;6.778;2022-11-23T05:44:20;8.20;99.90
7784;DHT22;19359;51.402;6.778;2022-11-23T05:46:47;8.10;99.90
7784;DHT22;19359;51.402;6.778;2022-11-23T05:49:13;8.00;99.90
7784;DHT22;19359;51.402;6.778;2022-11-23T05:51:40;8.20;99.90
7784;DHT22;19359;51.402;6.778;2022-11-23T05:54:08;8.10;99.90
7784;DHT22;19359;51.402;6.778;2022-11-23T05:56:35;8.20;99.90
7784;DHT22;19359;51.402;6.778;2022-11-23T05:59:02;8.10;99.90
7784;DHT22;19359;51.402;6.778;2022-11-23T06:01:29;8.30;99.90
7784;DHT22;19359;51.402;6.778;2022-11-23T06:03:57;8.20;99.90
7784;DHT22;19359;51.402;6.778;2022-11-23T06:06:24;8.20;99.90
7784;DHT22;19359;51.402;6.778;2022-11-23T06:11:19;7.90;99.90
7784;DHT22;19359;51.402;6.778;2022-11-23T06:13:46;8.60;99.90
7784;DHT22;19359;51.402;6.778;2022-11-23T06:16:13;8.20;99.90
7784;DHT22;19359;51.402;6.778;2022-11-23T06:18:39;8.00;99.90
7784;DHT22;19359;51.402;6.778;2022-11-23T06:21:06;8.10;99.90
7784;DHT22;19359;51.402;6.778;2022-11-23T06:23:33;8.00;99.90
7784;DHT22;19359;51.402;6.778;2022-11-23T06:26:00;8.00;99.90
7784;DHT22;19359;51.402;6.778;2022-11-23T06:28:28;8.00;99.90
7784;DHT22;19359;51.402;6.778;2022-11-23T06:31:00;8.20;99.90
7784;DHT22;19359;51.402;6.778;2022-11-23T06:33:26;8.00;99.90
7784;DHT22;19359;51.402;6.778;2022-11-23T06:35:54;8.00;99.90
7784;DHT22;19359;51.402;6.778;2022-11-23T06:38:21;8.10;99.90
7784;DHT22;19359;51.402;6.778;2022-11-23T06:40:48;8.10;99.90
7784;DHT22;19359;51.402;6.778;2022-11-23T06:43:14;8.00;99.90
7784;DHT22;19359;51.402;6.778;2022-11-23T06:45:42;8.20;99.90
7784;DHT22;19359;51.402;6.778;2022-11-23T06:48:09;8.10;99.90
7784;DHT22;19359;51.402;6.778;2022-11-23T06:50:36;8.20;99.90
7784;DHT22;19359;51.402;6.778;2022-11-23T06:53:03;7.60;99.90
7784;DHT22;19359;51.402;6.778;2022-11-23T06:55:29;8.10;99.90
7784;DHT22;19359;51.402;6.778;2022-11-23T06:57:56;8.20;99.90
7784;DHT22;19359;51.402;6.778;2022-11-23T07:00:24;8.10;99.90
7784;DHT22;19359;51.402;6.778;2022-11-23T07:02:53;8.10;99.90
7784;DHT22;19359;51.402;6.778;2022-11-23T07:05:20;8.00;99.90
7784;DHT22;19359;51.402;6.778;2022-11-23T07:07:46;8.10;99.90
7784;DHT22;19359;51.402;6.778;2022-11-23T07:10:13;8.10;99.90
7784;DHT22;19359;51.402;6.778;2022-11-23T07:12:41;8.10;99.90
7784;DHT22;19359;51.402;6.778;2022-11-23T07:15:08;8.20;99.90
7784;DHT22;19359;51.402;6.778;2022-11-23T07:17:37;8.10;99.90
7784;DHT22;19359;51.402;6.778;2022-11-23T07:20:07;8.00;99.90
7784;DHT22;19359;51.402;6.778;2022-11-23T07:22:34;8.00;99.90
7784;DHT22;19359;51.402;6.778;2022-11-23T07:25:01;8.10;99.90
7784;DHT22;19359;51.402;6.778;2022-11-23T07:27:28;8.10;99.90
7784;DHT22;19359;51.402;6.778;2022-11-23T07:29:55;8.00;99.90
7784;DHT22;19359;51.402;6.778;2022-11-23T07:32:21;8.00;99.90
7784;DHT22;19359;51.402;6.778;2022-11-23T07:34:48;8.10;99.90
7784;DHT22;19359;51.402;6.778;2022-11-23T07:37:16;7.80;99.90
7784;DHT22;19359;51.402;6.778;2022-11-23T07:39:43;8.10;99.90
7784;DHT22;19359;51.402;6.778;2022-11-23T07:42:09;8.30;99.90
7784;DHT22;19359;51.402;6.778;2022-11-23T07:44:36;8.10;99.90
7784;DHT22;19359;51.402;6.778;2022-11-23T07:49:30;8.20;99.90
7784;DHT22;19359;51.402;6.778;2022-11-23T07:51:56;8.20;99.90
7784;DHT22;19359;51.402;6.778;2022-11-23T07:54:25;8.30;99.90
7784;DHT22;19359;51.402;6.778;2022-11-23T07:56:51;8.40;99.90
7784;DHT22;19359;51.402;6.778;2022-11-23T08:01:45;8.30;99.90
7784;DHT22;19359;51.402;6.778;2022-11-23T08:06:39;8.50;99.90
7784;DHT22;19359;51.402;6.778;2022-11-23T08:09:05;8.50;99.90
7784;DHT22;19359;51.402;6.778;2022-11-23T08:11:34;8.50;99.90
7784;DHT22;19359;51.402;6.778;2022-11-23T08:14:00;8.60;99.90
7784;DHT22;19359;51.402;6.778;2022-11-23T08:16:27;8.70;99.90
7784;DHT22;19359;51.402;6.778;2022-11-23T08:18:55;8.60;99.90
7784;DHT22;19359;51.402;6.778;2022-11-23T08:21:22;8.70;99.90
7784;DHT22;19359;51.402;6.778;2022-11-23T08:23:48;8.60;99.90
7784;DHT22;19359;51.402;6.778;2022-11-23T08:26:15;8.70;99.90
7784;DHT22;19359;51.402;6.778;2022-11-23T08:28:43;8.70;99.90
7784;DHT22;19359;51.402;6.778;2022-11-23T08:31:10;8.80;1.00
7784;DHT22;19359;51.402;6.778;2022-11-23T08:33:40;8.90;99.90
7784;DHT22;19359;51.402;6.778;2022-11-23T08:36:08;8.80;99.90
7784;DHT22;19359;51.402;6.778;2022-11-23T08:38:35;8.90;1.00
7784;DHT22;19359;51.402;6.778;2022-11-23T08:41:02;8.90;1.00
7784;DHT22;19359;51.402;6.778;2022-11-23T08:43:30;9.00;1.00
7784;DHT22;19359;51.402;6.778;2022-11-23T08:45:58;9.00;1.00
7784;DHT22;19359;51.402;6.778;2022-11-23T08:48:26;9.20;1.00
7784;DHT22;19359;51.402;6.778;2022-11-23T08:50:53;9.00;1.00
7784;DHT22;19359;51.402;6.778;2022-11-23T08:55:50;9.10;1.00
7784;DHT22;19359;51.402;6.778;2022-11-23T08:58:17;9.00;1.00
7784;DHT22;19359;51.402;6.778;2022-11-23T09:00:43;9.10;1.00
7784;DHT22;19359;51.402;6.778;2022-11-23T09:03:11;9.20;1.00
7784;DHT22;19359;51.402;6.778;2022-11-23T09:05:38;9.70;1.00
7784;DHT22;19359;51.402;6.778;2022-11-23T09:08:05;9.00;1.00
7784;DHT22;19359;51.402;6.778;2022-11-23T09:10:33;9.20;1.00
7784;DHT22;19359;51.402;6.778;2022-11-23T09:13:00;9.20;1.00
7784;DHT22;19359;51.402;6.778;2022-11-23T09:15:27;9.80;1.00
7784;DHT22;19359;51.402;6.778;2022-11-23T09:17:53;9.30;1.00
7784;DHT22;19359;51.402;6.778;2022-11-23T09:20:22;10.10;1.00
7784;DHT22;19359;51.402;6.778;2022-11-23T09:22:50;9.40;1.00
7784;DHT22;19359;51.402;6.778;2022-11-23T09:25:18;9.40;1.00
7784;DHT22;19359;51.402;6.778;2022-11-23T09:27:44;9.40;1.00
7784;DHT22;19359;51.402;6.778;2022-11-23T09:30:12;9.40;1.00
7784;DHT22;19359;51.402;6.778;2022-11-23T09:32:39;9.60;1.00
7784;DHT22;19359;51.402;6.778;2022-11-23T09:35:07;9.50;1.00
7784;DHT22;19359;51.402;6.778;2022-11-23T09:37:35;9.30;1.00
7784;DHT22;19359;51.402;6.778;2022-11-23T09:40:02;9.50;1.00
7784;DHT22;19359;51.402;6.778;2022-11-23T09:42:39;9.80;1.00
7784;DHT22;19359;51.402;6.778;2022-11-23T09:45:15;9.50;1.00
7784;DHT22;19359;51.402;6.778;2022-11-23T09:48:12;9.60;1.00
7784;DHT22;19359;51.402;6.778;2022-11-23T09:50:45;9.40;1.00
7784;DHT22;19359;51.402;6.778;2022-11-23T09:53:17;9.80;1.00
7784;DHT22;19359;51.402;6.778;2022-11-23T09:55:46;9.50;1.00
7784;DHT22;19359;51.402;6.778;2022-11-23T09:58:16;9.60;1.00
7784;DHT22;19359;51.402;6.778;2022-11-23T10:00:46;9.10;1.00
7784;DHT22;19359;51.402;6.778;2022-11-23T10:03:16;9.60;1.00
7784;DHT22;19359;51.402;6.778;2022-11-23T10:05:49;9.60;1.00
7784;DHT22;19359;51.402;6.778;2022-11-23T10:08:25;9.50;1.00
7784;DHT22;19359;51.402;6.778;2022-11-23T10:10:59;9.50;1.00
7784;DHT22;19359;51.402;6.778;2022-11-23T10:13:34;9.40;1.00
7784;DHT22;19359;51.402;6.778;2022-11-23T10:16:23;8.30;1.00
7784;DHT22;19359;51.402;6.778;2022-11-23T10:18:57;9.60;1.00
7784;DHT22;19359;51.402;6.778;2022-11-23T10:21:36;9.60;1.00
7784;DHT22;19359;51.402;6.778;2022-11-23T10:24:14;9.70;1.00
7784;DHT22;19359;51.402;6.778;2022-11-23T10:26:44;9.70;1.00
7784;DHT22;19359;51.402;6.778;2022-11-23T10:29:13;9.70;1.00
7784;DHT22;19359;51.402;6.778;2022-11-23T10:31:45;9.60;1.00
7784;DHT22;19359;51.402;6.778;2022-11-23T10:34:15;9.80;1.00
7784;DHT22;19359;51.402;6.778;2022-11-23T10:36:43;9.70;1.00
7784;DHT22;19359;51.402;6.778;2022-11-23T10:39:17;9.80;1.00
7784;DHT22;19359;51.402;6.778;2022-11-23T10:41:45;9.70;1.00
7784;DHT22;19359;51.402;6.778;2022-11-23T10:44:21;9.60;1.00
7784;DHT22;19359;51.402;6.778;2022-11-23T10:46:51;9.70;1.00
7784;DHT22;19359;51.402;6.778;2022-11-23T10:49:20;9.60;1.00
7784;DHT22;19359;51.402;6.778;2022-11-23T10:51:49;9.70;1.00
7784;DHT22;19359;51.402;6.778;2022-11-23T10:54:21;9.60;1.00
7784;DHT22;19359;51.402;6.778;2022-11-23T10:56:50;9.90;1.00
7784;DHT22;19359;51.402;6.778;2022-11-23T10:59:29;9.80;1.00
7784;DHT22;19359;51.402;6.778;2022-11-23T11:04:48;9.80;1.00
7784;DHT22;19359;51.402;6.778;2022-11-23T11:07:21;9.70;1.00
7784;DHT22;19359;51.402;6.778;2022-11-23T11:09:51;9.70;1.00
7784;DHT22;19359;51.402;6.778;2022-11-23T11:12:19;9.70;1.00
7784;DHT22;19359;51.402;6.778;2022-11-23T11:14:58;9.90;1.00
7784;DHT22;19359;51.402;6.778;2022-11-23T11:17:29;9.80;1.00
7784;DHT22;19359;51.402;6.778;2022-11-23T11:19:57;9.70;1.00
7784;DHT22;19359;51.402;6.778;2022-11-23T11:22:31;9.80;1.00
7784;DHT22;19359;51.402;6.778;2022-11-23T11:25:01;9.80;1.00
7784;DHT22;19359;51.402;6.778;2022-11-23T11:27:30;9.80;1.00
7784;DHT22;19359;51.402;6.778;2022-11-23T11:30:03;9.80;1.00
7784;DHT22;19359;51.402;6.778;2022-11-23T11:32:37;9.70;1.00
7784;DHT22;19359;51.402;6.778;2022-11-23T11:35:12;9.90;1.00
7784;DHT22;19359;51.402;6.778;2022-11-23T11:37:42;9.90;1.00
7784;DHT22;19359;51.402;6.778;2022-11-23T11:40:18;9.80;1.00
7784;DHT22;19359;51.402;6.778;2022-11-23T11:42:49;9.70;1.00
7784;DHT22;19359;51.402;6.778;2022-11-23T11:45:21;9.90;1.00
7784;DHT22;19359;51.402;6.778;2022-11-23T11:47:54;9.90;1.00
7784;DHT22;19359;51.402;6.778;2022-11-23T11:50:23;9.90;1.00
7784;DHT22;19359;51.402;6.778;2022-11-23T11:52:55;9.80;1.00
7784;DHT22;19359;51.402;6.778;2022-11-23T11:55:28;10.10;1.00
7784;DHT22;19359;51.402;6.778;2022-11-23T11:58:02;10.10;1.00
7784;DHT22;19359;51.402;6.778;2022-11-23T12:00:29;10.00;1.00
7784;DHT22;19359;51.402;6.778;2022-11-23T12:03:05;10.30;1.00
7784;DHT22;19359;51.402;6.778;2022-11-23T12:05:38;10.50;1.00
7784;DHT22;19359;51.402;6.778;2022-11-23T12:08:09;10.20;1.00
7784;DHT22;19359;51.402;6.778;2022-11-23T12:10:40;10.30;1.00
7784;DHT22;19359;51.402;6.778;2022-11-23T12:13:12;10.40;1.00
7784;DHT22;19359;51.402;6.778;2022-11-23T12:15:43;11.00;1.00
7784;DHT22;19359;51.402;6.778;2022-11-23T12:18:41;10.40;1.00
7784;DHT22;19359;51.402;6.778;2022-11-23T12:21:20;10.40;1.00
7784;DHT22;19359;51.402;6.778;2022-11-23T12:23:55;10.50;1.00
7784;DHT22;19359;51.402;6.778;2022-11-23T12:26:28;10.40;1.00
7784;DHT22;19359;51.402;6.778;2022-11-23T12:29:13;10.60;1.00
7784;DHT22;19359;51.402;6.778;2022-11-23T12:31:44;10.60;1.00
7784;DHT22;19359;51.402;6.778;2022-11-23T12:34:28;10.60;1.00
7784;DHT22;19359;51.402;6.778;2022-11-23T12:37:16;10.70;1.00
7784;DHT22;19359;51.402;6.778;2022-11-23T12:40:02;10.90;1.00
7784;DHT22;19359;51.402;6.778;2022-11-23T12:42:39;10.70;1.00
7784;DHT22;19359;51.402;6.778;2022-11-23T12:48:09;10.70;1.00
7784;DHT22;19359;51.402;6.778;2022-11-23T12:50:46;10.50;1.00
7784;DHT22;19359;51.402;6.778;2022-11-23T12:53:38;10.60;1.00
7784;DHT22;19359;51.402;6.778;2022-11-23T12:56:12;10.20;1.00
7784;DHT22;19359;51.402;6.778;2022-11-23T12:58:43;10.30;1.00
7784;DHT22;19359;51.402;6.778;2022-11-23T13:01:14;10.20;1.00
7784;DHT22;19359;51.402;6.778;2022-11-23T13:07:00;10.20;1.00
7784;DHT22;19359;51.402;6.778;2022-11-23T13:09:46;10.40;1.00
7784;DHT22;19359;51.402;6.778;2022-11-23T13:12:35;10.20;1.00
7784;DHT22;19359;51.402;6.778;2022-11-23T13:15:18;10.30;1.00
7784;DHT22;19359;51.402;6.778;2022-11-23T13:17:52;10.20;1.00
7784;DHT22;19359;51.402;6.778;2022-11-23T13:20:37;10.30;1.00
7784;DHT22;19359;51.402;6.778;2022-11-23T13:23:06;10.30;1.00
7784;DHT22;19359;51.402;6.778;2022-11-23T13:25:34;10.20;1.00
7784;DHT22;19359;51.402;6.778;2022-11-23T13:28:02;10.10;1.00
7784;DHT22;19359;51.402;6.778;2022-11-23T13:30:33;10.30;1.00
7784;DHT22;19359;51.402;6.778;2022-11-23T13:33:11;10.20;1.00
7784;DHT22;19359;51.402;6.778;2022-11-23T13:35:57;10.20;1.00
7784;DHT22;19359;51.402;6.778;2022-11-23T13:38:26;10.00;1.00
7784;DHT22;19359;51.402;6.778;2022-11-23T13:40:54;10.20;1.00
7784;DHT22;19359;51.402;6.778;2022-11-23T13:43:23;10.30;1.00
7784;DHT22;19359;51.402;6.778;2022-11-23T13:46:21;10.00;1.00
7784;DHT22;19359;51.402;6.778;2022-11-23T13:48:50;10.10;1.00
7784;DHT22;19359;51.402;6.778;2022-11-23T13:51:28;10.10;1.00
7784;DHT22;19359;51.402;6.778;2022-11-23T13:53:58;10.00;1.00
7784;DHT22;19359;51.402;6.778;2022-11-23T13:56:32;9.90;1.00
7784;DHT22;19359;51.402;6.778;2022-11-23T13:59:26;9.90;1.00
7784;DHT22;19359;51.402;6.778;2022-11-23T14:05:30;9.80;1.00
7784;DHT22;19359;51.402;6.778;2022-11-23T14:08:02;9.80;1.00
7784;DHT22;19359;51.402;6.778;2022-11-23T14:10:30;10.00;1.00
7784;DHT22;19359;51.402;6.778;2022-11-23T14:13:00;9.70;1.00
7784;DHT22;19359;51.402;6.778;2022-11-23T14:15:32;9.90;1.00
7784;DHT22;19359;51.402;6.778;2022-11-23T14:18:13;9.80;1.00
7784;DHT22;19359;51.402;6.778;2022-11-23T14:21:00;9.70;1.00
7784;DHT22;19359;51.402;6.778;2022-11-23T14:24:03;9.60;1.00
7784;DHT22;19359;51.402;6.778;2022-11-23T14:26:36;9.80;1.00
7784;DHT22;19359;51.402;6.778;2022-11-23T14:29:19;9.70;1.00
7784;DHT22;19359;51.402;6.778;2022-11-23T14:32:04;9.60;1.00
7784;DHT22;19359;51.402;6.778;2022-11-23T14:34:43;9.60;1.00
7784;DHT22;19359;51.402;6.778;2022-11-23T14:37:20;9.60;1.00
7784;DHT22;19359;51.402;6.778;2022-11-23T14:39:58;9.40;1.00
7784;DHT22;19359;51.402;6.778;2022-11-23T14:42:29;9.40;1.00
7784;DHT22;19359;51.402;6.778;2022-11-23T14:45:01;9.70;1.00
7784;DHT22;19359;51.402;6.778;2022-11-23T14:47:30;9.50;1.00
7784;DHT22;19359;51.402;6.778;2022-11-23T14:49:57;9.60;1.00
7784;DHT22;19359;51.402;6.778;2022-11-23T14:52:30;9.60;1.00
7784;DHT22;19359;51.402;6.778;2022-11-23T14:55:00;9.50;1.00
7784;DHT22;19359;51.402;6.778;2022-11-23T14:57:35;9.50;1.00
7784;DHT22;19359;51.402;6.778;2022-11-23T15:00:06;9.50;1.00
7784;DHT22;19359;51.402;6.778;2022-11-23T15:02:35;9.60;1.00
7784;DHT22;19359;51.402;6.778;2022-11-23T15:05:06;9.60;1.00
7784;DHT22;19359;51.402;6.778;2022-11-23T15:07:42;9.50;1.00
7784;DHT22;19359;51.402;6.778;2022-11-23T15:10:27;9.70;1.00
7784;DHT22;19359;51.402;6.778;2022-11-23T15:12:56;9.60;1.00
7784;DHT22;19359;51.402;6.778;2022-11-23T15:15:24;9.70;1.00
7784;DHT22;19359;51.402;6.778;2022-11-23T15:17:52;9.30;1.00
7784;DHT22;19359;51.402;6.778;2022-11-23T15:20:19;9.70;1.00
7784;DHT22;19359;51.402;6.778;2022-11-23T15:22:49;9.70;1.00
7784;DHT22;19359;51.402;6.778;2022-11-23T15:25:16;9.60;1.00
7784;DHT22;19359;51.402;6.778;2022-11-23T15:27:45;9.80;1.00
7784;DHT22;19359;51.402;6.778;2022-11-23T15:30:17;9.60;1.00
7784;DHT22;19359;51.402;6.778;2022-11-23T15:32:54;9.60;1.00
7784;DHT22;19359;51.402;6.778;2022-11-23T15:35:23;9.30;1.00
7784;DHT22;19359;51.402;6.778;2022-11-23T15:37:53;9.40;1.00
7784;DHT22;19359;51.402;6.778;2022-11-23T15:40:21;9.50;1.00
7784;DHT22;19359;51.402;6.778;2022-11-23T15:42:49;9.40;1.00
7784;DHT22;19359;51.402;6.778;2022-11-23T15:45:33;9.00;1.00
7784;DHT22;19359;51.402;6.778;2022-11-23T15:48:00;9.20;1.00
7784;DHT22;19359;51.402;6.778;2022-11-23T15:50:27;9.00;1.00
7784;DHT22;19359;51.402;6.778;2022-11-23T15:52:58;9.00;1.00
7784;DHT22;19359;51.402;6.778;2022-11-23T15:55:25;8.70;1.00
7784;DHT22;19359;51.402;6.778;2022-11-23T15:57:52;8.70;1.00
7784;DHT22;19359;51.402;6.778;2022-11-23T16:00:21;8.70;1.00
7784;DHT22;19359;51.402;6.778;2022-11-23T16:02:49;8.70;1.00
7784;DHT22;19359;51.402;6.778;2022-11-23T16:05:18;8.70;1.00
7784;DHT22;19359;51.402;6.778;2022-11-23T16:07:54;8.60;1.00
7784;DHT22;19359;51.402;6.778;2022-11-23T16:10:24;8.60;1.00
7784;DHT22;19359;51.402;6.778;2022-11-23T16:12:53;8.50;1.00
7784;DHT22;19359;51.402;6.778;2022-11-23T16:15:44;8.50;1.00
7784;DHT22;19359;51.402;6.778;2022-11-23T16:18:21;8.50;1.00
7784;DHT22;19359;51.402;6.778;2022-11-23T16:20:51;8.50;5.90
7784;DHT22;19359;51.402;6.778;2022-11-23T16:23:21;8.50;52.50
7784;DHT22;19359;51.402;6.778;2022-11-23T16:25:55;8.20;99.90
7784;DHT22;19359;51.402;6.778;2022-11-23T16:28:26;8.30;1.00
7784;DHT22;19359;51.402;6.778;2022-11-23T16:30:54;8.20;99.90
7784;DHT22;19359;51.402;6.778;2022-11-23T16:33:22;8.20;97.70
7784;DHT22;19359;51.402;6.778;2022-11-23T16:35:49;8.20;99.90
7784;DHT22;19359;51.402;6.778;2022-11-23T16:38:19;8.20;99.90
7784;DHT22;19359;51.402;6.778;2022-11-23T16:40:46;8.10;99.90
7784;DHT22;19359;51.402;6.778;2022-11-23T16:43:16;8.20;1.00
7784;DHT22;19359;51.402;6.778;2022-11-23T16:45:44;8.20;99.90
7784;DHT22;19359;51.402;6.778;2022-11-23T16:48:38;8.10;1.00
7784;DHT22;19359;51.402;6.778;2022-11-23T16:51:05;7.80;1.00